Aurora, NE

10:07 PM CDT on September 24, 2016 (GMT -0500)
Aurora Municipal | | Change Station

Elev 1804 ft 40.89 °N, 97.99 °W | Updated 12 minutes ago

Clear
Clear
67 °F
Feels Like 67 °F
N
0
Wind Variable Wind from North

Today
High -- | Low -- °F
--% Chance of Precip.
Yesterday
High -- | Low -- °F
Precip. -- in
Pressure 29.97 in
Visibility 7.0 miles
Clouds Clear
Dew Point 67 °F
Humidity 100%
Rainfall 0.54 in
Snow Depth Not available.
7:22 AM 7:24 PM
Waning Crescent, 32% visible
METAR KAUH 250255Z AUTO 00000KT 7SM CLR 19/19 A2997 RMK AO2 T01920192
Pressure 29.97 in
Visibility 7.0 miles
Clouds Clear
Dew Point 67 °F
Humidity 100%
Rainfall 0.54 in
Snow Depth Not available.
7:22 AM 7:24 PM
Waning Crescent, 32% visible
METAR KAUH 250255Z AUTO 00000KT 7SM CLR 19/19 A2997 RMK AO2 T01920192

10-Day Weather Forecast

Almanac

Astronomy

Sep. 24, 2016 Rise Set
Actual Time
Civil Twilight
Nautical Twilight
Astronomical Twilight
Moon
Length of Visible Light
Length of Day
Tomorrow will be .
, % of the Moon is Illuminated

Today's Extremes

State Highs State Lows

Community

WunderPhotos

Upload Photos

1,941,531 photos uploaded!

WunderBlog® & News

Nearby

Air Quality

  Air Quality AQ Index Pollutant
Not available.

Snow Depth

Station Depth Elevation

Earthquake Activity

City Distance Mag. Time & Date
Minimum magnitude displayed is 2.5.

Coastal Water Temperatures

Place Temperature

Stations

Nearby Weather Stations

Station Location Temp. Windchill Dew Point Humidity Wind Precip. Elev Updated Type
                   

Watches & Warnings

There are currently no watches in effect.